Algoma, Wisconsin
Current Conditions -  °F | °C
As of 9:35 PM on Monday 20 Oct 2014 (Local Time) from KSUE Reporting Station
Overcast Overcast  
Wind Chill:   Ceiling: 2200
Heat Index:   Visibility: 10mi
Dew Point:   Wind: 13mph
Humidity: 71%   Direction: 360°N
Pressure: 30.01"   Gusts: 18mph
Location:  44.61°N, 87.43°W
Report Text: KSUE 210235Z AUTO 36011G16KT 10SM BKN022 OVC050 08/03 A3001 RMK AO1
Loading
Personal Weather Stations






























Interactive Weather Map
Tropical Storm Tracking
New forecast layout! Learn more

10-Day Weather Forecast

Advertisements
Track Severe Weather on mobile